createdAt,value
2018-04-28T17:18:12.269Z,1.40
2018-04-28T17:20:43.433Z,1.40
2018-04-28T17:23:13.247Z,2.23
2018-04-28T17:25:43.062Z,1.47
2018-04-28T17:28:12.876Z,1.75
2018-04-28T17:30:42.744Z,1.40
2018-04-28T17:33:12.927Z,1.83
2018-04-28T17:35:42.905Z,1.40
2018-04-28T17:38:13.973Z,1.23
2018-04-28T17:40:44.182Z,1.90
2018-04-28T17:43:18.912Z,1.60
2018-04-28T17:45:48.895Z,1.80
2018-04-28T17:48:17.774Z,1.57
2018-04-28T17:50:46.951Z,1.70
2018-04-28T17:53:15.914Z,1.70
2018-04-28T17:55:45.417Z,1.60
2018-04-28T17:58:15.243Z,1.80
2018-04-28T18:00:44.757Z,1.57
2018-04-28T18:03:14.859Z,2.50
2018-04-28T18:05:45.136Z,1.30
2018-04-28T18:08:16.195Z,1.65
2018-04-28T18:10:45.661Z,1.20
2018-04-28T18:13:16.086Z,1.60
2018-04-28T18:15:45.427Z,1.73
2018-04-28T18:18:14.834Z,1.50
2018-04-28T18:20:44.268Z,1.70
2018-04-28T18:23:13.503Z,1.58
2018-04-28T18:25:43.661Z,1.27
2018-04-28T18:28:13.004Z,1.60
2018-04-28T18:30:42.020Z,1.50
2018-04-28T18:33:31.149Z,1.43
2018-04-28T18:36:00.341Z,1.60
2018-04-28T18:38:28.678Z,2.03
2018-04-28T18:40:57.838Z,1.70
2018-04-28T18:43:26.193Z,1.43
2018-04-28T18:45:54.559Z,1.70
2018-04-28T18:48:22.910Z,2.03
2018-04-28T18:50:51.478Z,1.63
2018-04-28T18:53:20.151Z,1.67
2018-04-28T18:55:49.151Z,1.47
2018-04-28T18:58:18.343Z,1.40
2018-04-28T19:00:48.606Z,2.23
2018-04-28T19:03:18.826Z,1.53
2018-04-28T19:05:47.915Z,1.57
2018-04-28T19:08:17.774Z,1.53
2018-04-28T19:10:47.196Z,1.50
2018-04-28T19:13:17.696Z,1.33
2018-04-28T19:15:47.625Z,1.57
2018-04-28T19:18:16.366Z,1.67
2018-04-28T19:20:45.576Z,2.00
2018-04-28T19:23:15.951Z,1.50
2018-04-28T19:25:47.756Z,1.23
2018-04-28T19:28:16.592Z,1.70
2018-04-28T19:30:46.634Z,1.77
2018-04-28T19:33:16.901Z,1.53
2018-04-28T19:37:06.091Z,1.20
2018-04-28T19:39:35.406Z,1.63
2018-04-28T19:42:03.766Z,1.37
2018-04-28T19:44:32.207Z,1.60
2018-04-28T19:47:01.342Z,1.20
2018-04-28T19:49:29.771Z,1.17
2018-04-28T19:51:58.184Z,1.37
2018-04-28T19:54:26.612Z,0.90
2018-04-28T19:56:54.956Z,1.30
2018-04-28T19:59:24.124Z,1.00
2018-04-28T20:01:52.730Z,1.33
2018-04-28T20:13:14.759Z,1.20
2018-04-28T20:15:43.541Z,1.00
2018-04-28T20:18:13.953Z,1.20
2018-04-28T20:20:43.452Z,1.50
2018-04-28T20:23:23.638Z,1.13
2018-04-28T20:28:48.983Z,1.50
2018-04-28T20:31:17.586Z,1.23
2018-04-28T20:33:46.484Z,1.33
2018-04-28T20:36:15.483Z,1.40
2018-04-28T20:41:45.604Z,1.30
2018-04-28T20:44:16.816Z,1.00
2018-04-28T20:46:47.981Z,1.20
2018-04-28T20:49:18.445Z,1.37
2018-04-28T20:51:51.328Z,1.10
2018-04-28T20:54:22.069Z,1.03
2018-04-28T20:57:14.499Z,1.27
2018-04-28T20:59:48.747Z,1.10
2018-04-28T21:02:18.443Z,1.13
2018-04-28T21:04:48.158Z,1.40
2018-04-28T21:07:16.897Z,1.70
2018-04-28T21:09:45.904Z,1.83
2018-04-28T21:12:14.726Z,1.20
2018-04-28T21:14:46.354Z,1.17
2018-04-28T21:17:15.629Z,1.58
2018-04-28T21:19:45.292Z,1.40
2018-04-28T21:22:15.100Z,1.70
2018-04-28T21:24:47.126Z,1.30
2018-04-28T21:27:16.007Z,1.40
2018-04-28T21:29:45.284Z,1.53
2018-04-28T21:32:20.278Z,1.37
2018-04-28T21:34:49.855Z,1.00
2018-04-28T21:37:18.722Z,1.53
2018-04-28T21:39:48.689Z,1.57
2018-04-28T21:42:17.582Z,1.30
2018-04-28T21:44:46.497Z,1.60
2018-04-28T21:47:15.901Z,1.70
2018-04-28T21:49:45.678Z,1.47
2018-04-28T21:52:15.189Z,1.43
2018-04-28T21:54:46.236Z,1.80
2018-04-28T21:57:15.484Z,1.53
2018-04-28T21:59:47.752Z,1.20
2018-04-28T22:02:18.529Z,1.40
2018-04-28T22:04:48.968Z,1.00
2018-04-28T22:07:18.361Z,1.30
2018-04-28T22:09:48.337Z,1.57
2018-04-28T22:12:17.497Z,1.43
2018-04-28T22:14:48.091Z,1.30
2018-04-28T22:17:18.084Z,1.20
2018-04-28T22:19:48.598Z,1.40
2018-04-28T22:22:17.372Z,4.33
2018-04-28T22:24:46.275Z,15.15
2018-04-28T22:27:15.655Z,36.87
2018-04-28T22:29:44.453Z,15.37
2018-04-28T22:32:13.363Z,10.67
2018-04-28T22:34:43.237Z,3.67
2018-04-28T22:37:12.890Z,1.87
2018-04-28T22:39:42.111Z,3.97
2018-04-28T22:42:11.870Z,2.95
2018-04-28T22:44:40.878Z,3.00
2018-04-28T22:47:11.859Z,2.53
2018-04-28T22:49:42.305Z,2.27
2018-04-28T22:52:13.231Z,2.40
2018-04-28T22:54:44.335Z,2.23
2018-04-28T22:57:16.331Z,1.70
2018-04-28T22:59:47.790Z,1.33
2018-04-28T23:02:17.297Z,1.67
2018-04-28T23:04:48.538Z,1.90
2018-04-28T23:07:17.939Z,1.20
2018-04-28T23:09:47.497Z,1.40
2018-04-28T23:12:16.340Z,1.37
2018-04-28T23:14:45.273Z,1.70
2018-04-28T23:17:14.575Z,1.40
2018-04-28T23:19:44.626Z,1.63
2018-04-28T23:22:20.025Z,1.60
2018-04-28T23:24:49.030Z,1.40
2018-04-28T23:27:17.503Z,1.30
2018-04-28T23:29:47.009Z,1.67
2018-04-28T23:32:16.397Z,1.70
2018-04-28T23:34:45.271Z,1.40
2018-04-28T23:37:14.988Z,1.77
2018-04-28T23:39:44.095Z,1.10
2018-04-28T23:42:14.080Z,1.10
2018-04-28T23:44:43.128Z,1.40
2018-04-28T23:47:19.197Z,1.50
2018-04-28T23:49:48.315Z,1.67
2018-04-28T23:52:17.643Z,2.00
2018-04-28T23:54:47.810Z,2.00
2018-04-28T23:57:16.401Z,1.80
2018-04-28T23:59:45.503Z,1.70
